createdAt,value
2019-05-05T00:04:34.745Z,93683.42
2019-05-05T00:14:49.491Z,93694.69
2019-05-05T00:24:54.473Z,93708.00
2019-05-05T00:34:57.445Z,93717.47
2019-05-05T00:45:00.420Z,93719.09
2019-05-05T00:55:04.616Z,93722.81
2019-05-05T01:05:18.494Z,93722.27
2019-05-05T01:15:21.458Z,93739.53
2019-05-05T01:25:25.374Z,93739.24
2019-05-05T01:35:28.738Z,93743.37
2019-05-05T01:45:31.842Z,93751.73
2019-05-05T01:55:34.955Z,93751.48
2019-05-05T02:05:37.885Z,93759.45
2019-05-05T02:15:40.868Z,93761.16
2019-05-05T02:25:44.761Z,93764.94
2019-05-05T02:35:47.810Z,93764.05
2019-05-05T02:46:17.780Z,93762.77
2019-05-05T02:56:26.260Z,93737.31
2019-05-05T03:06:29.310Z,93745.36
2019-05-05T03:16:36.882Z,93751.44
2019-05-05T03:26:40.325Z,93750.84
2019-05-05T03:36:44.231Z,93751.83
2019-05-05T03:46:47.484Z,93754.00
2019-05-05T03:57:06.815Z,93749.77
2019-05-05T04:07:09.784Z,93754.94
2019-05-05T04:17:33.521Z,93759.14
2019-05-05T04:27:36.194Z,93762.87
2019-05-05T04:37:39.159Z,93760.94
2019-05-05T04:47:44.994Z,93757.75
2019-05-05T04:57:47.958Z,93780.39
2019-05-05T05:07:50.949Z,93783.70
2019-05-05T05:18:04.232Z,93797.30
2019-05-05T05:28:07.245Z,93820.37
2019-05-05T05:38:10.281Z,93823.23
2019-05-05T05:48:34.244Z,93848.28
2019-05-05T05:58:37.316Z,93838.42
2019-05-05T06:08:40.290Z,93879.30
2019-05-05T06:18:43.772Z,93874.59
2019-05-05T06:28:46.868Z,93893.63
2019-05-05T06:38:49.893Z,93897.45
2019-05-05T06:48:53.851Z,93914.22
2019-05-05T06:58:56.955Z,93934.39
2019-05-05T07:08:59.934Z,93947.42
2019-05-05T07:19:04.353Z,93954.74
2019-05-05T07:29:07.573Z,93977.86
2019-05-05T07:39:11.120Z,93983.84
2019-05-05T07:49:14.114Z,93991.50
2019-05-05T07:59:17.168Z,93995.45
2019-05-05T08:09:22.618Z,94006.90
2019-05-05T08:19:34.707Z,94012.59
2019-05-05T08:29:43.812Z,94010.09
2019-05-05T08:39:49.194Z,93995.70
2019-05-05T08:49:53.717Z,94002.52
2019-05-05T08:59:56.934Z,94010.36
2019-05-05T09:09:59.905Z,94015.66
2019-05-05T09:20:04.591Z,94015.22
2019-05-05T09:30:10.109Z,94029.20
2019-05-05T09:40:17.056Z,94040.45
2019-05-05T09:50:20.233Z,94042.55
2019-05-05T10:00:24.391Z,94053.17
2019-05-05T10:10:27.615Z,94064.63
2019-05-05T10:20:30.619Z,94074.34
2019-05-05T10:30:33.807Z,94081.41
2019-05-05T10:40:36.763Z,94073.27
2019-05-05T10:50:39.789Z,94085.48
2019-05-05T11:00:49.632Z,94073.30
2019-05-05T11:10:52.645Z,94077.18
2019-05-05T11:20:55.802Z,94081.77
2019-05-05T11:30:59.114Z,94059.50
2019-05-05T11:41:02.208Z,94051.08
2019-05-05T11:51:06.310Z,94062.70
2019-05-05T12:01:11.339Z,94060.55
2019-05-05T12:11:15.090Z,94065.12
2019-05-05T12:21:18.285Z,94076.06
2019-05-05T12:31:24.886Z,94093.50
2019-05-05T12:41:28.070Z,94108.27
2019-05-05T12:51:31.195Z,94105.89
2019-05-05T13:01:36.933Z,94092.13
2019-05-05T13:11:39.903Z,94094.07
2019-05-05T13:22:01.033Z,94104.02
2019-05-05T13:32:04.128Z,94099.64
2019-05-05T13:42:07.133Z,94081.32
2019-05-05T13:52:10.247Z,94081.14
2019-05-05T14:02:13.756Z,94100.86
2019-05-05T14:12:17.544Z,94098.14
2019-05-05T14:22:20.547Z,94091.30
2019-05-05T14:32:27.329Z,94086.25
2019-05-05T14:42:30.411Z,94069.59
2019-05-05T14:52:33.521Z,94061.70
2019-05-05T15:02:36.586Z,94067.00
2019-05-05T15:12:44.690Z,94073.38
2019-05-05T15:22:47.812Z,94086.81
2019-05-05T15:32:50.814Z,94091.12
2019-05-05T15:42:54.456Z,94099.59
2019-05-05T15:52:57.658Z,94088.43
2019-05-05T16:03:00.664Z,94087.30
2019-05-05T16:13:04.456Z,94098.82
2019-05-05T16:23:14.431Z,94115.71
2019-05-05T16:37:33.513Z,94118.06
2019-05-05T16:47:39.143Z,94118.84
2019-05-05T16:57:43.744Z,94127.83
2019-05-05T17:07:47.010Z,94123.31
2019-05-05T17:17:56.303Z,94126.17
2019-05-05T17:28:01.446Z,94135.38
2019-05-05T17:38:13.769Z,94128.33
2019-05-05T17:48:27.131Z,94131.91
2019-05-05T17:58:30.288Z,94140.57
2019-05-05T18:08:45.906Z,94155.02
2019-05-05T18:18:49.206Z,94164.62
2019-05-05T18:28:54.114Z,94170.83
2019-05-05T18:38:57.570Z,94172.84
2019-05-05T18:49:00.667Z,94176.99
2019-05-05T18:59:06.569Z,94195.27
2019-05-05T19:09:11.032Z,94186.83
2019-05-05T19:19:14.369Z,94209.01
2019-05-05T19:29:17.419Z,94224.81
2019-05-05T19:39:20.455Z,94234.45
2019-05-05T19:49:24.197Z,94233.50
2019-05-05T19:59:27.331Z,94236.84
2019-05-05T20:09:30.320Z,94244.13
2019-05-05T20:19:54.661Z,94250.60
2019-05-05T20:29:57.764Z,94249.91
2019-05-05T20:40:01.347Z,94247.07
2019-05-05T20:50:04.896Z,94247.83
2019-05-05T21:00:10.193Z,94241.78
2019-05-05T21:10:15.292Z,94238.40
2019-05-05T21:20:18.538Z,94243.00
2019-05-05T21:30:23.715Z,94234.05
2019-05-05T21:40:26.972Z,94235.33
2019-05-05T21:50:35.515Z,94227.24
2019-05-05T22:00:59.735Z,94231.64
2019-05-05T22:11:03.881Z,94225.98
2019-05-05T22:21:19.417Z,94229.73
2019-05-05T22:31:23.799Z,94230.67
2019-05-05T22:41:27.938Z,94236.09
2019-05-05T22:51:33.824Z,94245.15
2019-05-05T23:01:37.113Z,94250.27
2019-05-05T23:11:40.113Z,94246.11
2019-05-05T23:21:48.802Z,94246.40
2019-05-05T23:31:53.704Z,94243.42
2019-05-05T23:41:56.842Z,94243.79
2019-05-05T23:51:59.814Z,94257.17
